Time;durP1;ratioP1;P1;durP2;ratioP2;P2;SDS_P1;SDS_P2;PMS_P1;PMS_P2;Temp;Humidity;BMP_temperature;BMP_pressure;BME280_temperature;BME280_humidity;BME280_pressure;Samples;Min_cycle;Max_cycle;Signal;HPM_P1;HPM_P2
2022/07/07 00:02:24;;;;;;;5.05;2.20;;;14.60;62.90;;;;;;5010995;28;20026;-75
2022/07/07 00:04:49;;;;;;;2.20;1.75;;;14.60;63.00;;;;;;5011122;28;20026;-75
2022/07/07 00:07:15;;;;;;;5.75;2.05;;;14.50;63.20;;;;;;5010822;28;20501;-75
2022/07/07 00:09:40;;;;;;;3.30;1.92;;;14.30;63.70;;;;;;5010580;28;20057;-75
2022/07/07 00:12:06;;;;;;;4.15;2.17;;;14.20;64.30;;;;;;5009689;28;20037;-75
2022/07/07 00:14:32;;;;;;;4.65;1.65;;;14.10;65.60;;;;;;5011081;28;20069;-74
2022/07/07 00:16:58;;;;;;;4.07;2.15;;;14.10;66.00;;;;;;5010735;28;20042;-75
2022/07/07 00:19:24;;;;;;;5.25;2.30;;;14.00;65.20;;;;;;5010945;28;20509;-75
2022/07/07 00:21:50;;;;;;;3.85;2.05;;;14.00;65.40;;;;;;5011135;28;20026;-75
2022/07/07 00:24:16;;;;;;;5.18;1.95;;;14.00;65.30;;;;;;5009422;28;20501;-74
2022/07/07 00:26:41;;;;;;;4.13;1.90;;;14.00;65.60;;;;;;5010352;28;20022;-74
2022/07/07 00:29:07;;;;;;;4.93;2.00;;;14.00;65.90;;;;;;5010897;28;20113;-75
2022/07/07 00:31:32;;;;;;;4.15;2.13;;;13.90;65.90;;;;;;5010496;28;20398;-75
2022/07/07 00:33:58;;;;;;;8.07;2.00;;;13.90;65.90;;;;;;5010488;28;20492;-74
2022/07/07 00:36:24;;;;;;;5.47;2.08;;;13.90;65.70;;;;;;5010641;28;20044;-75
2022/07/07 00:38:50;;;;;;;2.83;1.73;;;13.70;66.10;;;;;;5009698;28;20450;-75
2022/07/07 00:41:15;;;;;;;2.35;1.85;;;13.70;66.20;;;;;;5020618;28;20029;-76
2022/07/07 00:43:42;;;;;;;2.95;2.03;;;13.70;66.30;;;;;;5015411;28;20025;-73
2022/07/07 00:46:08;;;;;;;4.38;2.13;;;13.60;66.50;;;;;;5012641;28;20029;-74
2022/07/07 00:48:39;;;;;;;3.78;2.00;;;13.60;66.60;;;;;;5010879;28;20102;-75
2022/07/07 00:51:06;;;;;;;3.05;2.20;;;13.50;67.00;;;;;;5009777;28;20054;-77
2022/07/07 00:53:32;;;;;;;3.15;1.75;;;13.40;67.30;;;;;;5010283;28;20394;-75
2022/07/07 00:55:58;;;;;;;3.88;2.22;;;13.40;67.30;;;;;;5009190;28;20026;-74
2022/07/07 00:58:24;;;;;;;3.65;2.10;;;13.40;67.40;;;;;;5010467;28;20105;-74
2022/07/07 01:00:50;;;;;;;4.68;1.80;;;13.30;67.40;;;;;;5010203;28;20022;-74
2022/07/07 01:03:16;;;;;;;4.05;1.90;;;13.30;67.90;;;;;;5010170;28;20043;-75
2022/07/07 01:05:48;;;;;;;4.68;2.00;;;13.30;68.10;;;;;;5010383;28;20477;-75
2022/07/07 01:08:15;;;;;;;5.40;1.73;;;13.20;68.20;;;;;;5010430;28;20167;-74
2022/07/07 01:10:44;;;;;;;3.28;2.00;;;13.30;68.20;;;;;;5010203;28;20026;-75
2022/07/07 01:13:10;;;;;;;5.65;2.40;;;13.20;68.50;;;;;;5009971;28;20034;-74
2022/07/07 01:15:35;;;;;;;2.30;1.60;;;13.10;68.80;;;;;;5010471;28;20022;-74
2022/07/07 01:18:01;;;;;;;3.58;1.73;;;13.10;68.60;;;;;;5010172;28;20511;-74
2022/07/07 01:20:27;;;;;;;5.15;1.95;;;13.10;68.60;;;;;;5010024;28;20023;-74
2022/07/07 01:22:54;;;;;;;2.72;1.58;;;13.20;68.20;;;;;;5010444;28;20375;-74
2022/07/07 01:25:21;;;;;;;6.32;1.55;;;13.30;68.30;;;;;;5009975;28;20030;-74
2022/07/07 01:27:47;;;;;;;6.20;1.88;;;13.20;68.10;;;;;;5009994;28;20054;-74
2022/07/07 01:30:13;;;;;;;2.40;1.48;;;13.20;68.30;;;;;;5009971;28;20046;-74
2022/07/07 01:32:38;;;;;;;2.53;1.50;;;13.20;68.40;;;;;;5010252;28;20057;-74
2022/07/07 01:35:05;;;;;;;6.63;2.00;;;13.20;68.30;;;;;;5018961;28;20026;-75
2022/07/07 01:37:33;;;;;;;2.42;1.60;;;13.20;68.20;;;;;;5015525;28;20022;-74
2022/07/07 01:39:59;;;;;;;3.65;1.70;;;13.20;68.30;;;;;;5012717;28;20022;-74
2022/07/07 01:42:25;;;;;;;4.53;1.67;;;13.10;68.40;;;;;;5010352;28;20022;-74
2022/07/07 01:44:51;;;;;;;8.15;2.00;;;13.00;68.70;;;;;;5011768;28;20037;-75
2022/07/07 01:47:19;;;;;;;6.95;1.90;;;12.90;69.30;;;;;;5011376;28;20377;-75
2022/07/07 01:49:45;;;;;;;5.72;1.40;;;12.80;69.40;;;;;;5011821;28;20026;-73
2022/07/07 01:52:11;;;;;;;4.40;1.88;;;12.70;69.80;;;;;;5011692;28;20033;-73
2022/07/07 01:54:38;;;;;;;7.47;2.10;;;12.80;69.80;;;;;;5010185;28;20056;-74
2022/07/07 01:57:07;;;;;;;3.50;1.73;;;12.80;69.90;;;;;;5013820;28;20022;-77
2022/07/07 01:59:33;;;;;;;8.35;2.00;;;12.80;69.70;;;;;;5022764;28;20029;-73
2022/07/07 02:01:59;;;;;;;5.15;1.80;;;12.90;69.50;;;;;;5016229;28;20075;-74
2022/07/07 02:04:25;;;;;;;3.05;1.73;;;13.00;69.20;;;;;;5018591;28;20116;-74
2022/07/07 02:06:51;;;;;;;4.82;1.65;;;13.00;68.90;;;;;;5022776;28;20022;-74
2022/07/07 02:09:17;;;;;;;4.63;1.80;;;12.90;69.10;;;;;;5018238;28;20025;-74
2022/07/07 02:11:43;;;;;;;4.70;1.77;;;12.80;69.60;;;;;;5013282;28;20026;-76
2022/07/07 02:14:09;;;;;;;5.03;1.88;;;12.60;70.20;;;;;;5012851;28;20056;-75
2022/07/07 02:16:36;;;;;;;7.72;1.65;;;12.60;70.40;;;;;;5014765;28;20474;-75
2022/07/07 02:19:03;;;;;;;3.63;1.60;;;12.60;70.50;;;;;;5019094;28;20113;-74
2022/07/07 02:21:29;;;;;;;3.70;1.60;;;12.60;70.50;;;;;;5015289;28;20097;-75
2022/07/07 02:23:56;;;;;;;5.88;1.85;;;12.70;70.40;;;;;;5014726;28;20057;-75
2022/07/07 02:26:22;;;;;;;3.63;1.77;;;12.70;70.10;;;;;;5013177;28;20079;-75
2022/07/07 02:28:48;;;;;;;4.32;1.60;;;12.80;70.10;;;;;;5012623;28;20509;-75
2022/07/07 02:31:14;;;;;;;4.95;1.95;;;12.70;70.00;;;;;;5012197;28;20072;-75
2022/07/07 02:33:40;;;;;;;7.38;1.73;;;12.70;70.10;;;;;;5012433;28;20030;-75
2022/07/07 02:36:07;;;;;;;4.25;1.80;;;12.70;70.20;;;;;;5012688;28;20427;-75
2022/07/07 02:38:33;;;;;;;3.17;1.30;;;12.70;70.20;;;;;;5012442;28;20102;-75
2022/07/07 02:41:00;;;;;;;4.43;1.92;;;12.70;70.10;;;;;;5012273;28;20026;-76
2022/07/07 02:43:26;;;;;;;5.32;1.50;;;12.60;70.60;;;;;;5012313;28;20030;-76
2022/07/07 02:45:52;;;;;;;2.42;1.55;;;12.60;70.60;;;;;;5012413;28;20029;-74
2022/07/07 02:48:20;;;;;;;3.58;1.70;;;12.60;70.70;;;;;;5012061;28;20038;-75
2022/07/07 02:50:46;;;;;;;4.72;1.50;;;12.60;70.60;;;;;;5012356;28;20105;-75
2022/07/07 02:53:12;;;;;;;2.05;1.63;;;12.70;70.50;;;;;;5012170;28;20125;-75
2022/07/07 02:55:39;;;;;;;3.85;1.42;;;12.70;70.30;;;;;;5012333;28;20053;-76
2022/07/07 02:58:06;;;;;;;5.32;1.83;;;12.70;70.30;;;;;;5012034;28;20098;-74
2022/07/07 03:00:35;;;;;;;3.83;1.92;;;12.60;70.50;;;;;;5012161;28;20044;-77
2022/07/07 03:03:02;;;;;;;2.45;1.88;;;12.50;70.80;;;;;;5012119;28;20046;-75
2022/07/07 03:05:28;;;;;;;5.90;1.88;;;12.40;71.40;;;;;;5011941;28;20071;-74
2022/07/07 03:07:54;;;;;;;6.70;2.03;;;12.40;71.70;;;;;;5012252;28;20503;-75
2022/07/07 03:10:20;;;;;;;5.15;2.28;;;12.30;72.00;;;;;;5011918;28;20075;-76
2022/07/07 03:12:45;;;;;;;3.85;1.80;;;12.30;72.00;;;;;;5011679;28;20030;-76
2022/07/07 03:15:11;;;;;;;4.43;1.63;;;12.40;71.90;;;;;;5011090;28;20090;-76
2022/07/07 03:17:41;;;;;;;3.25;1.70;;;12.40;71.40;;;;;;5011650;28;20029;-74
2022/07/07 03:20:08;;;;;;;3.40;1.95;;;12.40;71.70;;;;;;5011836;28;20034;-75
2022/07/07 03:22:33;;;;;;;2.75;1.50;;;12.30;71.80;;;;;;5011804;28;20025;-75
2022/07/07 03:24:59;;;;;;;6.55;1.77;;;12.30;72.20;;;;;;5010319;28;20045;-75
2022/07/07 03:27:25;;;;;;;7.65;2.03;;;12.40;71.70;;;;;;5011718;28;20026;-74
2022/07/07 03:29:51;;;;;;;6.03;1.83;;;12.40;71.60;;;;;;5011509;28;20118;-74
2022/07/07 03:32:17;;;;;;;7.50;2.08;;;12.50;71.40;;;;;;5011545;28;20041;-75
2022/07/07 03:34:43;;;;;;;6.03;2.00;;;12.40;71.30;;;;;;5011332;28;20022;-75
2022/07/07 03:37:08;;;;;;;5.60;2.05;;;12.40;71.60;;;;;;5011558;28;20022;-75
2022/07/07 03:39:34;;;;;;;5.30;2.00;;;12.30;71.80;;;;;;5011517;28;20030;-74
2022/07/07 03:41:59;;;;;;;3.20;2.10;;;12.40;71.70;;;;;;5010154;28;20045;-74
2022/07/07 03:44:25;;;;;;;2.65;1.92;;;12.30;71.90;;;;;;5011138;28;20081;-75
2022/07/07 03:46:51;;;;;;;2.78;1.75;;;12.40;72.00;;;;;;5011427;28;20104;-75
2022/07/07 03:49:16;;;;;;;2.80;1.92;;;12.40;71.80;;;;;;5011284;28;20104;-75
2022/07/07 03:51:42;;;;;;;3.58;1.70;;;12.40;71.80;;;;;;5011304;28;20022;-75
2022/07/07 03:54:08;;;;;;;6.45;1.90;;;12.40;72.60;;;;;;5011252;28;20485;-77
2022/07/07 03:56:33;;;;;;;5.63;2.13;;;12.40;71.60;;;;;;5012447;28;20022;-75
2022/07/07 03:58:59;;;;;;;4.55;1.90;;;12.40;71.90;;;;;;5010383;28;20071;-73
2022/07/07 04:01:24;;;;;;;3.83;1.73;;;12.30;72.00;;;;;;5011494;28;20474;-73
2022/07/07 04:03:50;;;;;;;7.40;2.10;;;12.40;71.70;;;;;;5011248;28;20029;-74
2022/07/07 04:06:16;;;;;;;8.38;2.25;;;12.30;71.90;;;;;;5011284;28;20025;-75
2022/07/07 04:08:41;;;;;;;6.55;2.00;;;12.20;72.30;;;;;;5011172;28;20434;-74
2022/07/07 04:11:06;;;;;;;5.30;2.03;;;12.20;72.50;;;;;;5011168;28;20030;-75
2022/07/07 04:13:32;;;;;;;3.35;1.80;;;12.20;72.70;;;;;;5011019;28;20038;-74
2022/07/07 04:15:57;;;;;;;3.35;1.55;;;12.20;72.70;;;;;;5011050;28;20026;-75
2022/07/07 04:18:23;;;;;;;4.47;1.70;;;12.20;72.70;;;;;;5010766;28;20034;-74
2022/07/07 04:20:49;;;;;;;5.80;1.75;;;12.20;72.50;;;;;;5011078;28;20097;-74
2022/07/07 04:23:15;;;;;;;8.50;1.88;;;12.20;72.90;;;;;;5010861;28;20500;-74
2022/07/07 04:25:40;;;;;;;4.38;1.70;;;12.20;72.90;;;;;;5009929;28;20051;-74
2022/07/07 04:28:07;;;;;;;4.88;1.90;;;12.30;72.80;;;;;;5010701;28;20022;-74
2022/07/07 04:30:33;;;;;;;3.08;2.10;;;12.40;72.60;;;;;;5010430;28;20048;-75
2022/07/07 04:32:58;;;;;;;6.07;1.90;;;12.50;72.20;;;;;;5009404;28;20449;-76
2022/07/07 04:35:24;;;;;;;4.07;1.70;;;12.50;71.90;;;;;;5010671;28;20029;-74
2022/07/07 04:37:50;;;;;;;4.55;1.70;;;12.60;71.50;;;;;;5010535;28;20026;-74
2022/07/07 04:40:15;;;;;;;2.78;1.65;;;12.60;71.40;;;;;;5010351;28;20100;-75
2022/07/07 04:42:41;;;;;;;6.03;1.60;;;12.60;71.30;;;;;;5009967;28;20058;-74
2022/07/07 04:45:07;;;;;;;5.82;1.23;;;12.70;71.30;;;;;;5010459;28;20474;-74
2022/07/07 04:47:39;;;;;;;8.65;1.80;;;12.80;71.20;;;;;;5010330;28;20494;-75
2022/07/07 04:50:05;;;;;;;7.00;1.45;;;13.00;70.60;;;;;;5010445;28;20037;-74
2022/07/07 04:52:31;;;;;;;3.50;1.70;;;13.00;70.60;;;;;;5010265;28;20518;-74
2022/07/07 04:54:56;;;;;;;5.45;1.92;;;13.10;70.20;;;;;;5010282;28;20156;-75
2022/07/07 04:57:22;;;;;;;3.42;1.75;;;13.20;69.90;;;;;;5008775;28;20064;-75
2022/07/07 04:59:47;;;;;;;2.70;1.75;;;13.30;69.60;;;;;;5010225;28;20030;-75
2022/07/07 05:02:13;;;;;;;11.52;1.52;;;13.40;69.20;;;;;;5010150;28;20060;-75
2022/07/07 05:04:38;;;;;;;6.18;1.92;;;13.50;69.10;;;;;;5010192;28;20109;-74
2022/07/07 05:07:04;;;;;;;4.28;1.60;;;13.70;68.90;;;;;;5010344;28;20534;-75
2022/07/07 05:09:30;;;;;;;3.20;1.40;;;13.80;68.30;;;;;;5010032;28;20038;-75
2022/07/07 05:11:55;;;;;;;8.27;1.48;;;13.80;67.70;;;;;;5010119;28;20026;-81
2022/07/07 05:14:21;;;;;;;4.38;1.50;;;14.00;66.90;;;;;;5008803;28;20030;-76
2022/07/07 05:16:46;;;;;;;6.28;1.58;;;13.90;66.80;;;;;;5009898;28;20356;-78
2022/07/07 05:19:12;;;;;;;5.38;1.67;;;13.90;67.10;;;;;;5008752;28;20034;-79
2022/07/07 05:21:37;;;;;;;5.82;1.95;;;13.90;67.20;;;;;;5010004;28;20022;-75
2022/07/07 05:24:03;;;;;;;16.92;2.38;;;13.80;67.10;;;;;;5009711;28;20030;-76
2022/07/07 05:26:29;;;;;;;8.48;2.10;;;13.80;67.20;;;;;;5009840;28;20022;-76
2022/07/07 05:28:54;;;;;;;6.28;2.10;;;13.80;67.50;;;;;;5010103;28;20032;-75
2022/07/07 05:31:20;;;;;;;4.80;1.50;;;14.00;66.80;;;;;;5008732;28;20099;-76
2022/07/07 05:33:45;;;;;;;5.50;1.98;;;14.10;66.30;;;;;;5009684;28;20105;-75
2022/07/07 05:36:11;;;;;;;4.47;1.83;;;14.30;66.10;;;;;;5013874;28;20030;-73
2022/07/07 05:38:37;;;;;;;4.40;1.98;;;14.40;65.70;;;;;;5025460;28;20026;-74
2022/07/07 05:41:03;;;;;;;10.82;2.08;;;14.70;65.30;;;;;;5017703;28;20026;-74
2022/07/07 05:43:31;;;;;;;2.63;1.58;;;14.80;64.90;;;;;;5017530;28;20026;-74
2022/07/07 05:45:57;;;;;;;5.72;1.50;;;14.90;64.70;;;;;;5017669;28;20018;-73
2022/07/07 05:48:22;;;;;;;7.47;2.10;;;15.00;64.70;;;;;;5017510;28;20282;-74
2022/07/07 05:50:48;;;;;;;3.90;1.58;;;15.10;64.60;;;;;;5013633;28;20037;-76
2022/07/07 05:53:13;;;;;;;4.95;1.52;;;15.30;64.40;;;;;;5013193;28;20038;-75
2022/07/07 05:55:39;;;;;;;3.60;1.30;;;15.60;64.00;;;;;;5013068;28;20494;-75
2022/07/07 05:58:05;;;;;;;5.05;1.88;;;15.80;63.50;;;;;;5013634;28;20083;-75
2022/07/07 06:00:31;;;;;;;7.95;1.75;;;15.90;62.80;;;;;;5013074;28;20030;-75
2022/07/07 06:02:56;;;;;;;3.80;1.60;;;16.20;62.50;;;;;;5013237;28;20033;-75
2022/07/07 06:05:22;;;;;;;4.00;1.80;;;16.30;62.20;;;;;;5013148;28;20170;-77
2022/07/07 06:07:48;;;;;;;4.80;1.20;;;16.40;61.90;;;;;;5012547;28;20473;-74
2022/07/07 06:10:14;;;;;;;3.50;1.50;;;16.60;61.60;;;;;;5012765;28;20030;-75
2022/07/07 06:12:41;;;;;;;2.47;1.17;;;16.70;61.60;;;;;;5013006;28;20083;-75
2022/07/07 06:15:07;;;;;;;1.33;0.85;;;16.90;61.10;;;;;;5012809;28;20482;-75
2022/07/07 06:17:33;;;;;;;3.60;1.60;;;17.00;60.10;;;;;;5012288;28;20054;-75
2022/07/07 06:19:59;;;;;;;8.38;1.60;;;17.20;59.40;;;;;;5011398;28;20434;-74
2022/07/07 06:22:26;;;;;;;12.63;1.88;;;17.40;58.30;;;;;;5012866;28;20106;-75
2022/07/07 06:24:52;;;;;;;8.32;1.58;;;17.50;55.60;;;;;;5012409;28;20022;-74
2022/07/07 06:27:18;;;;;;;6.07;1.60;;;17.50;55.50;;;;;;5012396;28;20112;-75
2022/07/07 06:29:44;;;;;;;6.78;1.30;;;17.60;55.20;;;;;;5012452;28;20038;-75
2022/07/07 06:32:10;;;;;;;3.65;1.25;;;17.80;55.00;;;;;;5012375;28;20045;-77
2022/07/07 06:34:36;;;;;;;4.15;1.77;;;17.80;51.70;;;;;;5011531;28;20068;-74
2022/07/07 06:37:02;;;;;;;10.60;1.25;;;17.90;50.40;;;;;;5011462;28;20053;-74
2022/07/07 06:39:28;;;;;;;5.70;1.27;;;18.00;49.40;;;;;;5012278;28;20034;-75
2022/07/07 06:41:54;;;;;;;6.75;2.10;;;18.00;49.30;;;;;;5011289;28;20022;-74
2022/07/07 06:44:19;;;;;;;9.57;1.40;;;18.10;49.40;;;;;;5012894;28;20030;-76
2022/07/07 06:46:45;;;;;;;5.97;1.83;;;18.10;48.50;;;;;;5011538;28;20026;-75
2022/07/07 06:49:12;;;;;;;6.63;1.30;;;18.10;48.70;;;;;;5011081;28;20034;-74
2022/07/07 06:51:38;;;;;;;4.97;1.45;;;18.10;48.60;;;;;;5012389;28;20059;-79
2022/07/07 06:54:04;;;;;;;4.25;1.60;;;18.00;48.70;;;;;;5012224;28;20040;-75
2022/07/07 06:56:29;;;;;;;7.88;2.20;;;18.10;49.80;;;;;;5012555;28;20079;-76
2022/07/07 06:58:55;;;;;;;4.53;1.45;;;17.90;49.70;;;;;;5012525;28;20474;-74
2022/07/07 07:01:21;;;;;;;2.20;1.20;;;17.70;49.00;;;;;;5012395;28;20060;-74
2022/07/07 07:03:46;;;;;;;1.75;0.90;;;17.80;49.30;;;;;;5012858;28;20026;-74
2022/07/07 07:06:12;;;;;;;9.40;1.80;;;17.90;49.00;;;;;;5012392;28;20034;-74
2022/07/07 07:08:37;;;;;;;7.05;1.40;;;18.20;49.20;;;;;;5012270;28;20105;-74
2022/07/07 07:11:04;;;;;;;4.72;1.48;;;18.20;51.10;;;;;;5010730;28;20117;-75
2022/07/07 07:13:30;;;;;;;8.55;1.50;;;18.50;48.80;;;;;;5011802;28;20037;-76
2022/07/07 07:15:56;;;;;;;5.32;1.25;;;18.40;49.30;;;;;;5011788;28;20025;-73
2022/07/07 07:18:21;;;;;;;6.20;1.23;;;18.50;50.00;;;;;;5010732;28;20058;-76
2022/07/07 07:20:47;;;;;;;7.80;1.30;;;18.80;51.70;;;;;;5011435;28;20026;-74
2022/07/07 07:23:12;;;;;;;8.68;1.88;;;19.00;48.30;;;;;;5010088;28;20022;-73
2022/07/07 07:25:38;;;;;;;7.47;2.03;;;19.10;49.90;;;;;;5011726;28;20034;-75
2022/07/07 07:28:04;;;;;;;4.88;1.08;;;19.20;48.70;;;;;;5011527;28;20408;-74
2022/07/07 07:30:29;;;;;;;3.90;1.38;;;19.40;46.90;;;;;;5011250;28;20077;-74
2022/07/07 07:32:55;;;;;;;4.90;1.30;;;19.60;47.30;;;;;;5012019;28;20030;-75
2022/07/07 07:35:21;;;;;;;4.10;1.25;;;19.80;46.80;;;;;;5012023;28;20069;-75
2022/07/07 07:37:46;;;;;;;5.57;1.40;;;19.90;46.40;;;;;;5011719;28;20045;-73
2022/07/07 07:40:12;;;;;;;3.83;1.25;;;19.60;46.60;;;;;;5009781;28;20030;-75
2022/07/07 07:42:39;;;;;;;10.57;1.73;;;19.10;49.10;;;;;;5011342;28;20034;-74
2022/07/07 07:45:11;;;;;;;8.07;1.67;;;19.10;48.90;;;;;;5011930;28;20022;-83
2022/07/07 07:47:38;;;;;;;5.10;1.42;;;19.20;49.40;;;;;;5011970;28;20022;-77
2022/07/07 07:50:04;;;;;;;7.80;1.48;;;19.30;48.40;;;;;;5012906;28;20029;-80
2022/07/07 07:52:30;;;;;;;4.45;1.38;;;19.20;48.30;;;;;;5012277;28;20462;-86
2022/07/07 07:54:55;;;;;;;2.72;1.23;;;18.90;49.50;;;;;;5012996;28;20033;-83
2022/07/07 07:57:21;;;;;;;7.43;1.38;;;19.00;48.90;;;;;;5012698;28;20095;-80
2022/07/07 07:59:46;;;;;;;5.05;1.75;;;19.20;48.70;;;;;;5012756;28;20018;-83
2022/07/07 08:02:12;;;;;;;6.90;1.65;;;19.30;48.90;;;;;;5011876;28;20030;-76
2022/07/07 08:04:38;;;;;;;3.67;1.48;;;19.50;48.70;;;;;;5012612;28;20030;-82
2022/07/07 08:07:04;;;;;;;5.53;1.88;;;19.70;48.50;;;;;;5013382;28;20424;-80
2022/07/07 08:09:29;;;;;;;3.42;1.58;;;19.90;47.30;;;;;;5012299;28;20026;-86
2022/07/07 08:11:55;;;;;;;4.57;1.65;;;19.80;47.70;;;;;;5012405;28;20030;-77
2022/07/07 08:14:21;;;;;;;4.45;1.55;;;19.30;49.60;;;;;;5012184;28;20045;-76
2022/07/07 08:16:47;;;;;;;3.42;1.23;;;19.40;50.20;;;;;;5012230;28;20022;-76
2022/07/07 08:19:17;;;;;;;5.88;1.80;;;19.50;49.80;;;;;;5012313;28;20086;-73
2022/07/07 08:21:50;;;;;;;8.73;1.80;;;19.70;49.20;;;;;;5010990;28;20546;-73
2022/07/07 08:24:17;;;;;;;7.18;1.20;;;19.70;48.00;;;;;;5010307;28;20105;-75
2022/07/07 08:26:42;;;;;;;5.18;1.65;;;19.60;48.50;;;;;;5010606;28;20034;-73
2022/07/07 08:29:08;;;;;;;6.93;1.15;;;19.40;49.10;;;;;;5010378;28;20366;-78
2022/07/07 08:31:34;;;;;;;9.25;1.70;;;19.40;49.30;;;;;;5010150;28;20050;-73
2022/07/07 08:34:00;;;;;;;4.05;2.03;;;19.40;49.10;;;;;;5010473;28;20110;-76
2022/07/07 08:36:26;;;;;;;4.18;1.83;;;19.60;49.70;;;;;;5010984;28;20026;-78
2022/07/07 08:38:52;;;;;;;5.30;1.67;;;19.70;49.20;;;;;;5009508;28;20038;-73
2022/07/07 08:41:18;;;;;;;4.80;1.60;;;19.60;49.20;;;;;;5009967;28;20110;-74
2022/07/07 08:43:44;;;;;;;5.90;1.75;;;19.70;49.50;;;;;;5010727;28;20442;-76
2022/07/07 08:46:11;;;;;;;6.80;1.85;;;19.50;49.00;;;;;;5010550;28;20022;-75
2022/07/07 08:48:37;;;;;;;5.50;1.55;;;19.50;49.90;;;;;;5011130;28;20047;-75
2022/07/07 08:51:03;;;;;;;4.03;1.90;;;19.40;50.10;;;;;;5010317;28;20026;-74
2022/07/07 08:53:34;;;;;;;3.83;1.60;;;19.40;49.90;;;;;;5010166;28;20040;-74
2022/07/07 08:56:04;;;;;;;5.85;1.25;;;19.40;50.20;;;;;;5010369;28;20102;-75
2022/07/07 08:58:31;;;;;;;5.00;2.05;;;19.30;51.30;;;;;;5010522;28;20519;-75
2022/07/07 09:00:56;;;;;;;6.07;1.70;;;19.40;50.90;;;;;;5010365;28;20112;-75
2022/07/07 09:03:22;;;;;;;9.32;1.88;;;19.20;51.80;;;;;;5010589;28;20053;-73
2022/07/07 09:05:49;;;;;;;4.80;1.58;;;19.20;51.00;;;;;;5008725;28;20470;-74
2022/07/07 09:08:22;;;;;;;5.50;1.92;;;19.20;51.00;;;;;;5010437;28;20025;-74
2022/07/07 09:10:48;;;;;;;5.80;1.77;;;19.30;51.20;;;;;;5010057;28;20022;-73
2022/07/07 09:13:27;;;;;;;4.55;1.40;;;19.30;50.90;;;;;;5012475;28;20037;-73
2022/07/07 09:15:54;;;;;;;8.02;2.30;;;19.20;50.60;;;;;;5013315;28;20022;-76
2022/07/07 09:18:37;;;;;;;9.98;1.92;;;19.00;51.60;;;;;;5013689;28;20026;-74
2022/07/07 09:21:07;;;;;;;6.22;1.38;;;19.10;51.80;;;;;;5013755;28;20033;-74
2022/07/07 09:23:33;;;;;;;3.95;1.80;;;19.10;51.10;;;;;;5013762;28;20485;-74
2022/07/07 09:26:00;;;;;;;3.92;1.30;;;19.20;50.70;;;;;;5013942;28;20034;-74
2022/07/07 09:28:27;;;;;;;2.83;1.00;;;19.20;50.70;;;;;;5012195;28;20034;-74
2022/07/07 09:30:53;;;;;;;5.32;1.13;;;19.20;50.90;;;;;;5013580;28;20517;-73
2022/07/07 09:33:25;;;;;;;8.85;1.50;;;19.20;51.60;;;;;;5013245;28;20038;-74
2022/07/07 09:38:40;;;;;;;4.60;1.17;;;19.10;51.70;;;;;;5012804;28;20045;-73
2022/07/07 09:41:15;;;;;;;3.85;1.35;;;19.10;51.60;;;;;;5012941;28;20049;-73
2022/07/07 09:43:51;;;;;;;6.80;1.60;;;19.00;51.20;;;;;;5013153;28;20061;-73
2022/07/07 09:46:24;;;;;;;5.00;1.70;;;19.00;51.50;;;;;;5012832;28;20022;-73
2022/07/07 09:48:58;;;;;;;5.00;1.50;;;19.10;51.30;;;;;;5013565;28;20022;-73
2022/07/07 09:51:28;;;;;;;5.95;1.90;;;18.80;52.00;;;;;;5012681;28;20041;-73
2022/07/07 09:53:55;;;;;;;8.00;1.52;;;18.60;53.40;;;;;;5012829;28;20564;-73
2022/07/07 09:56:23;;;;;;;7.40;1.83;;;18.50;53.90;;;;;;5012817;28;20420;-73
2022/07/07 09:58:49;;;;;;;3.17;1.60;;;18.60;52.90;;;;;;5013228;28;20489;-73
2022/07/07 10:01:16;;;;;;;5.05;1.77;;;18.70;52.30;;;;;;5012494;28;20184;-73
2022/07/07 10:03:43;;;;;;;8.82;1.75;;;18.70;52.30;;;;;;5012499;28;20050;-74
2022/07/07 10:06:12;;;;;;;4.60;1.60;;;18.90;52.20;;;;;;5013120;28;20026;-74
2022/07/07 10:08:45;;;;;;;3.55;1.35;;;19.10;52.20;;;;;;5012713;28;20034;-74
2022/07/07 10:11:16;;;;;;;6.78;1.63;;;19.40;50.60;;;;;;5012520;28;20055;-74
2022/07/07 10:13:44;;;;;;;7.85;1.80;;;19.70;50.50;;;;;;5012471;28;20034;-77
2022/07/07 10:16:10;;;;;;;5.93;1.63;;;19.80;50.30;;;;;;5011216;28;20379;-74
2022/07/07 10:18:36;;;;;;;9.05;1.63;;;19.80;50.40;;;;;;5015230;28;20026;-75
2022/07/07 10:21:03;;;;;;;4.90;1.60;;;20.10;50.60;;;;;;5012621;28;20509;-75
2022/07/07 10:23:33;;;;;;;6.32;1.40;;;20.30;50.10;;;;;;5012060;28;20394;-74
2022/07/07 10:26:07;;;;;;;3.55;1.63;;;20.40;48.90;;;;;;5012278;28;20121;-78
2022/07/07 10:28:53;;;;;;;5.55;1.48;;;20.40;48.40;;;;;;5011518;28;20030;-78
2022/07/07 10:31:23;;;;;;;6.70;2.03;;;19.90;49.30;;;;;;5010620;28;20422;-78
2022/07/07 10:34:15;;;;;;;8.85;1.63;;;19.90;49.40;;;;;;5010186;28;20058;-78
2022/07/07 10:36:49;;;;;;;4.13;1.45;;;19.80;49.80;;;;;;5015391;28;20033;-79
2022/07/07 10:39:22;;;;;;;8.20;1.90;;;19.70;51.20;;;;;;5013086;28;20427;-80
2022/07/07 10:42:05;;;;;;;7.32;1.65;;;19.70;51.10;;;;;;5012466;28;20044;-78
2022/07/07 10:44:32;;;;;;;3.72;1.30;;;20.00;50.70;;;;;;5010617;28;20064;-79
2022/07/07 10:47:24;;;;;;;3.08;1.50;;;20.30;49.60;;;;;;5011631;28;20075;-79
2022/07/07 10:49:52;;;;;;;6.38;1.40;;;20.40;49.30;;;;;;5011766;28;20441;-79
2022/07/07 10:52:25;;;;;;;3.40;1.40;;;20.40;49.80;;;;;;5011425;28;20026;-78
2022/07/07 10:54:53;;;;;;;6.30;1.90;;;20.10;50.40;;;;;;5012346;28;20057;-78
2022/07/07 10:57:21;;;;;;;7.55;1.60;;;20.00;50.80;;;;;;5018533;28;20053;-77
2022/07/07 11:00:09;;;;;;;5.22;1.67;;;19.80;50.80;;;;;;5011875;28;20034;-79
2022/07/07 11:02:41;;;;;;;12.18;1.95;;;19.90;50.60;;;;;;5010342;28;20030;-79
2022/07/07 11:05:10;;;;;;;6.50;1.40;;;19.90;50.90;;;;;;5014243;28;20026;-75
2022/07/07 11:07:35;;;;;;;9.00;1.60;;;19.50;51.00;;;;;;5012596;28;20090;-77
2022/07/07 11:10:04;;;;;;;8.32;1.85;;;19.20;52.50;;;;;;5011672;28;20026;-77
2022/07/07 11:12:42;;;;;;;6.38;1.83;;;19.10;54.00;;;;;;5011651;28;20022;-78
2022/07/07 11:15:22;;;;;;;13.15;2.00;;;19.20;53.00;;;;;;5011296;28;20025;-77
2022/07/07 11:18:07;;;;;;;7.85;1.88;;;19.20;54.20;;;;;;5011362;28;20041;-80
2022/07/07 11:20:33;;;;;;;5.22;1.67;;;19.40;53.40;;;;;;5010627;28;20029;-78
2022/07/07 11:23:10;;;;;;;6.38;1.67;;;19.60;52.70;;;;;;5011430;28;20102;-79
2022/07/07 11:25:38;;;;;;;6.57;1.77;;;20.00;51.10;;;;;;5010890;28;20025;-79
2022/07/07 11:28:08;;;;;;;7.07;1.70;;;20.20;50.50;;;;;;5010147;28;20071;-79
2022/07/07 11:30:35;;;;;;;6.30;1.48;;;20.30;49.60;;;;;;5011163;28;20050;-78
2022/07/07 11:33:02;;;;;;;10.15;1.80;;;20.40;50.60;;;;;;5011216;28;20026;-79
2022/07/07 11:35:31;;;;;;;4.43;1.15;;;20.30;50.10;;;;;;5010726;28;20067;-79
2022/07/07 11:37:57;;;;;;;6.93;1.98;;;20.30;50.10;;;;;;5010994;28;20026;-79
2022/07/07 11:40:24;;;;;;;7.40;1.60;;;20.30;51.30;;;;;;5011062;28;20026;-79
2022/07/07 11:42:50;;;;;;;6.40;1.80;;;20.30;50.60;;;;;;5010717;28;20119;-78
2022/07/07 11:45:20;;;;;;;5.85;1.50;;;20.10;50.70;;;;;;5010960;28;20030;-75
2022/07/07 11:47:46;;;;;;;8.90;1.80;;;20.40;49.00;;;;;;5012099;28;20030;-78
2022/07/07 11:50:12;;;;;;;10.48;1.80;;;20.50;48.40;;;;;;5012951;28;20026;-78
2022/07/07 11:52:38;;;;;;;2.30;1.10;;;20.40;48.60;;;;;;5011814;28;20038;-74
2022/07/07 11:55:04;;;;;;;4.82;1.35;;;20.50;48.80;;;;;;5011059;28;20033;-76
2022/07/07 11:57:37;;;;;;;6.30;1.40;;;20.70;48.40;;;;;;5011046;28;20099;-76
2022/07/07 12:00:10;;;;;;;12.45;2.92;;;20.80;48.60;;;;;;5011012;28;20025;-75
2022/07/07 12:02:35;;;;;;;5.22;2.00;;;21.10;47.70;;;;;;5010916;28;20036;-73
2022/07/07 12:05:01;;;;;;;12.25;2.20;;;21.50;46.50;;;;;;5011275;28;20022;-75
2022/07/07 12:07:27;;;;;;;4.03;1.33;;;21.90;46.00;;;;;;5012393;28;20416;-74
2022/07/07 12:09:52;;;;;;;10.80;1.80;;;21.70;44.90;;;;;;5011124;28;20113;-73
2022/07/07 12:12:18;;;;;;;12.80;1.70;;;21.50;44.80;;;;;;5011316;28;20124;-74
2022/07/07 12:14:44;;;;;;;5.88;1.20;;;21.80;45.30;;;;;;5010457;28;20022;-76
2022/07/07 12:17:10;;;;;;;6.20;1.20;;;22.00;44.60;;;;;;5011419;28;20026;-74
2022/07/07 12:19:46;;;;;;;3.03;0.95;;;22.30;43.90;;;;;;5011863;28;20033;-75
2022/07/07 12:22:12;;;;;;;5.53;1.00;;;22.40;43.50;;;;;;5013360;28;20026;-73
2022/07/07 12:24:37;;;;;;;7.85;1.13;;;21.60;43.50;;;;;;5011557;28;20018;-76
2022/07/07 12:27:03;;;;;;;6.10;1.38;;;21.00;45.30;;;;;;5009659;28;20105;-74
2022/07/07 12:29:29;;;;;;;10.25;1.77;;;20.60;46.30;;;;;;5010442;28;20129;-73
2022/07/07 12:31:55;;;;;;;6.72;1.52;;;20.60;47.30;;;;;;5011109;28;20042;-76
2022/07/07 12:34:22;;;;;;;3.08;1.15;;;20.50;48.20;;;;;;5010780;28;20054;-73
2022/07/07 12:36:49;;;;;;;2.65;1.27;;;20.60;48.00;;;;;;5010623;28;20542;-73
2022/07/07 12:39:14;;;;;;;4.97;1.40;;;20.70;48.20;;;;;;5010911;28;20038;-73
2022/07/07 12:41:41;;;;;;;2.58;1.40;;;20.90;47.30;;;;;;5010799;28;20462;-72
2022/07/07 12:44:22;;;;;;;1.90;1.00;;;21.00;47.10;;;;;;5009382;28;20022;-77
2022/07/07 12:46:48;;;;;;;3.50;0.95;;;21.10;46.60;;;;;;5010219;28;20025;-75
2022/07/07 12:49:14;;;;;;;3.65;1.10;;;21.20;46.20;;;;;;5012238;28;20053;-73